sensor_id;sensor_type;location;lat;lon;timestamp;P1;durP1;ratioP1;P2;durP2;ratioP2
77518;SDS011;66629;47.346;19.038;2023-05-10T00:01:02;5.57;;;3.40;;
77518;SDS011;66629;47.346;19.038;2023-05-10T00:03:27;7.43;;;3.33;;
77518;SDS011;66629;47.346;19.038;2023-05-10T00:05:53;5.25;;;3.40;;
77518;SDS011;66629;47.346;19.038;2023-05-10T00:08:18;4.80;;;3.50;;
77518;SDS011;66629;47.346;19.038;2023-05-10T00:10:44;5.85;;;3.10;;
77518;SDS011;66629;47.346;19.038;2023-05-10T00:13:09;4.30;;;3.40;;
77518;SDS011;66629;47.346;19.038;2023-05-10T00:15:35;5.78;;;3.80;;
77518;SDS011;66629;47.346;19.038;2023-05-10T00:18:00;6.03;;;3.67;;
77518;SDS011;66629;47.346;19.038;2023-05-10T00:20:26;5.70;;;3.97;;
77518;SDS011;66629;47.346;19.038;2023-05-10T00:22:51;6.38;;;3.60;;
77518;SDS011;66629;47.346;19.038;2023-05-10T00:25:17;5.82;;;3.67;;
77518;SDS011;66629;47.346;19.038;2023-05-10T00:27:42;5.18;;;3.60;;
77518;SDS011;66629;47.346;19.038;2023-05-10T00:30:09;5.80;;;3.90;;
77518;SDS011;66629;47.346;19.038;2023-05-10T00:32:34;5.70;;;3.78;;
77518;SDS011;66629;47.346;19.038;2023-05-10T00:35:00;6.50;;;3.92;;
77518;SDS011;66629;47.346;19.038;2023-05-10T00:37:25;8.27;;;3.90;;
77518;SDS011;66629;47.346;19.038;2023-05-10T00:39:50;6.75;;;4.00;;
77518;SDS011;66629;47.346;19.038;2023-05-10T00:42:16;5.20;;;3.58;;
77518;SDS011;66629;47.346;19.038;2023-05-10T00:44:41;4.75;;;3.50;;
77518;SDS011;66629;47.346;19.038;2023-05-10T00:47:07;7.65;;;4.20;;
77518;SDS011;66629;47.346;19.038;2023-05-10T00:49:33;6.38;;;3.55;;
77518;SDS011;66629;47.346;19.038;2023-05-10T00:51:59;5.13;;;3.38;;
77518;SDS011;66629;47.346;19.038;2023-05-10T00:54:26;7.05;;;3.63;;
77518;SDS011;66629;47.346;19.038;2023-05-10T00:56:52;5.10;;;4.03;;
77518;SDS011;66629;47.346;19.038;2023-05-10T00:59:18;7.65;;;4.10;;
77518;SDS011;66629;47.346;19.038;2023-05-10T01:01:44;5.65;;;3.78;;
77518;SDS011;66629;47.346;19.038;2023-05-10T01:04:10;5.72;;;4.15;;
77518;SDS011;66629;47.346;19.038;2023-05-10T01:06:40;4.60;;;3.55;;
77518;SDS011;66629;47.346;19.038;2023-05-10T01:09:06;8.25;;;4.00;;
77518;SDS011;66629;47.346;19.038;2023-05-10T01:11:33;5.60;;;3.58;;
77518;SDS011;66629;47.346;19.038;2023-05-10T01:14:00;7.20;;;3.78;;
77518;SDS011;66629;47.346;19.038;2023-05-10T01:16:27;6.00;;;4.10;;
77518;SDS011;66629;47.346;19.038;2023-05-10T01:18:54;6.88;;;3.80;;
77518;SDS011;66629;47.346;19.038;2023-05-10T01:33:00;6.30;;;3.42;;
77518;SDS011;66629;47.346;19.038;2023-05-10T01:41:12;4.83;;;3.20;;
77518;SDS011;66629;47.346;19.038;2023-05-10T01:43:48;4.88;;;3.70;;
77518;SDS011;66629;47.346;19.038;2023-05-10T01:46:35;5.00;;;3.00;;
77518;SDS011;66629;47.346;19.038;2023-05-10T01:49:03;4.57;;;3.35;;
77518;SDS011;66629;47.346;19.038;2023-05-10T01:51:38;4.78;;;3.58;;
77518;SDS011;66629;47.346;19.038;2023-05-10T01:54:09;6.60;;;3.63;;
77518;SDS011;66629;47.346;19.038;2023-05-10T01:56:38;5.75;;;3.30;;
77518;SDS011;66629;47.346;19.038;2023-05-10T01:59:06;6.00;;;3.58;;
77518;SDS011;66629;47.346;19.038;2023-05-10T02:01:36;4.15;;;3.40;;
77518;SDS011;66629;47.346;19.038;2023-05-10T02:04:04;4.50;;;3.20;;
77518;SDS011;66629;47.346;19.038;2023-05-10T02:06:32;5.50;;;3.30;;
77518;SDS011;66629;47.346;19.038;2023-05-10T02:08:59;5.20;;;3.60;;
77518;SDS011;66629;47.346;19.038;2023-05-10T02:11:26;4.88;;;3.53;;
77518;SDS011;66629;47.346;19.038;2023-05-10T02:13:53;5.50;;;3.53;;
77518;SDS011;66629;47.346;19.038;2023-05-10T02:16:20;6.55;;;3.88;;
77518;SDS011;66629;47.346;19.038;2023-05-10T02:18:50;4.15;;;3.33;;
77518;SDS011;66629;47.346;19.038;2023-05-10T02:21:17;5.78;;;3.65;;
77518;SDS011;66629;47.346;19.038;2023-05-10T02:23:45;6.07;;;3.60;;
77518;SDS011;66629;47.346;19.038;2023-05-10T02:26:11;4.78;;;3.53;;
77518;SDS011;66629;47.346;19.038;2023-05-10T02:28:38;5.30;;;3.40;;
77518;SDS011;66629;47.346;19.038;2023-05-10T02:31:05;3.78;;;2.95;;
77518;SDS011;66629;47.346;19.038;2023-05-10T02:33:31;4.78;;;3.40;;
77518;SDS011;66629;47.346;19.038;2023-05-10T02:35:58;5.65;;;3.97;;
77518;SDS011;66629;47.346;19.038;2023-05-10T02:38:24;4.90;;;3.63;;
77518;SDS011;66629;47.346;19.038;2023-05-10T02:40:51;5.03;;;3.20;;
77518;SDS011;66629;47.346;19.038;2023-05-10T02:43:18;4.32;;;3.47;;
77518;SDS011;66629;47.346;19.038;2023-05-10T02:45:48;5.13;;;3.63;;
77518;SDS011;66629;47.346;19.038;2023-05-10T02:48:13;5.20;;;3.75;;
77518;SDS011;66629;47.346;19.038;2023-05-10T02:50:39;6.28;;;3.85;;
77518;SDS011;66629;47.346;19.038;2023-05-10T02:53:09;4.90;;;3.70;;
77518;SDS011;66629;47.346;19.038;2023-05-10T02:55:40;6.65;;;3.88;;
77518;SDS011;66629;47.346;19.038;2023-05-10T02:58:07;5.03;;;3.58;;
77518;SDS011;66629;47.346;19.038;2023-05-10T03:00:32;6.63;;;3.78;;
77518;SDS011;66629;47.346;19.038;2023-05-10T03:02:58;5.68;;;3.67;;
77518;SDS011;66629;47.346;19.038;2023-05-10T03:05:24;4.78;;;3.45;;
77518;SDS011;66629;47.346;19.038;2023-05-10T03:07:49;6.82;;;4.07;;
77518;SDS011;66629;47.346;19.038;2023-05-10T03:10:16;6.78;;;4.00;;
77518;SDS011;66629;47.346;19.038;2023-05-10T03:20:36;4.88;;;3.72;;
77518;SDS011;66629;47.346;19.038;2023-05-10T03:25:46;8.90;;;3.38;;
77518;SDS011;66629;47.346;19.038;2023-05-10T03:28:14;5.57;;;3.80;;
77518;SDS011;66629;47.346;19.038;2023-05-10T03:30:41;4.55;;;3.65;;
77518;SDS011;66629;47.346;19.038;2023-05-10T03:33:08;6.07;;;4.10;;
77518;SDS011;66629;47.346;19.038;2023-05-10T03:35:33;6.75;;;3.80;;
77518;SDS011;66629;47.346;19.038;2023-05-10T03:37:59;5.30;;;3.70;;
77518;SDS011;66629;47.346;19.038;2023-05-10T03:40:25;4.80;;;3.92;;
77518;SDS011;66629;47.346;19.038;2023-05-10T03:42:51;6.97;;;4.18;;
77518;SDS011;66629;47.346;19.038;2023-05-10T03:45:16;7.38;;;4.40;;
77518;SDS011;66629;47.346;19.038;2023-05-10T03:47:42;7.80;;;4.28;;
77518;SDS011;66629;47.346;19.038;2023-05-10T03:50:10;6.35;;;3.55;;
77518;SDS011;66629;47.346;19.038;2023-05-10T03:52:35;6.40;;;4.13;;
77518;SDS011;66629;47.346;19.038;2023-05-10T03:55:01;5.00;;;4.00;;
77518;SDS011;66629;47.346;19.038;2023-05-10T03:57:28;6.55;;;4.15;;
77518;SDS011;66629;47.346;19.038;2023-05-10T03:59:54;7.90;;;4.03;;
77518;SDS011;66629;47.346;19.038;2023-05-10T04:02:19;6.97;;;4.10;;
77518;SDS011;66629;47.346;19.038;2023-05-10T04:04:44;7.25;;;4.28;;
77518;SDS011;66629;47.346;19.038;2023-05-10T04:07:10;5.68;;;3.65;;
77518;SDS011;66629;47.346;19.038;2023-05-10T04:09:35;6.15;;;4.00;;
77518;SDS011;66629;47.346;19.038;2023-05-10T04:12:00;6.25;;;4.20;;
77518;SDS011;66629;47.346;19.038;2023-05-10T04:14:27;5.53;;;4.38;;
77518;SDS011;66629;47.346;19.038;2023-05-10T04:16:52;4.93;;;3.85;;
77518;SDS011;66629;47.346;19.038;2023-05-10T04:19:18;4.82;;;3.70;;
77518;SDS011;66629;47.346;19.038;2023-05-10T04:21:43;7.75;;;4.03;;
77518;SDS011;66629;47.346;19.038;2023-05-10T04:24:09;5.97;;;4.18;;
77518;SDS011;66629;47.346;19.038;2023-05-10T04:26:34;7.63;;;4.22;;
77518;SDS011;66629;47.346;19.038;2023-05-10T04:29:00;5.13;;;3.90;;
77518;SDS011;66629;47.346;19.038;2023-05-10T04:31:25;6.32;;;4.72;;
77518;SDS011;66629;47.346;19.038;2023-05-10T04:33:51;6.07;;;4.13;;
77518;SDS011;66629;47.346;19.038;2023-05-10T04:36:17;5.30;;;3.95;;
77518;SDS011;66629;47.346;19.038;2023-05-10T04:38:42;6.65;;;3.78;;
77518;SDS011;66629;47.346;19.038;2023-05-10T04:41:09;9.25;;;3.90;;
77518;SDS011;66629;47.346;19.038;2023-05-10T04:43:35;5.53;;;4.05;;
77518;SDS011;66629;47.346;19.038;2023-05-10T04:46:01;4.68;;;3.95;;
77518;SDS011;66629;47.346;19.038;2023-05-10T04:48:27;7.88;;;3.90;;
77518;SDS011;66629;47.346;19.038;2023-05-10T04:50:52;7.05;;;3.95;;
77518;SDS011;66629;47.346;19.038;2023-05-10T04:53:18;4.78;;;3.42;;
77518;SDS011;66629;47.346;19.038;2023-05-10T04:55:43;6.38;;;4.10;;
77518;SDS011;66629;47.346;19.038;2023-05-10T04:58:09;6.63;;;3.38;;
77518;SDS011;66629;47.346;19.038;2023-05-10T05:00:34;7.03;;;3.50;;
77518;SDS011;66629;47.346;19.038;2023-05-10T05:03:00;4.70;;;3.58;;
77518;SDS011;66629;47.346;19.038;2023-05-10T05:05:25;7.25;;;3.65;;
77518;SDS011;66629;47.346;19.038;2023-05-10T05:07:51;5.32;;;3.67;;
77518;SDS011;66629;47.346;19.038;2023-05-10T05:10:16;7.50;;;3.42;;
77518;SDS011;66629;47.346;19.038;2023-05-10T05:12:42;4.82;;;3.45;;
77518;SDS011;66629;47.346;19.038;2023-05-10T05:15:07;5.85;;;3.97;;
77518;SDS011;66629;47.346;19.038;2023-05-10T05:17:34;4.47;;;3.58;;
77518;SDS011;66629;47.346;19.038;2023-05-10T05:20:00;6.05;;;3.35;;
77518;SDS011;66629;47.346;19.038;2023-05-10T05:22:26;5.38;;;2.92;;
77518;SDS011;66629;47.346;19.038;2023-05-10T05:24:54;6.22;;;3.53;;
77518;SDS011;66629;47.346;19.038;2023-05-10T05:27:20;4.78;;;3.70;;
77518;SDS011;66629;47.346;19.038;2023-05-10T05:29:49;5.55;;;3.83;;
77518;SDS011;66629;47.346;19.038;2023-05-10T05:32:17;5.30;;;3.38;;
77518;SDS011;66629;47.346;19.038;2023-05-10T05:34:46;5.20;;;3.70;;
77518;SDS011;66629;47.346;19.038;2023-05-10T05:37:12;5.72;;;3.42;;
77518;SDS011;66629;47.346;19.038;2023-05-10T05:39:41;4.72;;;3.40;;
77518;SDS011;66629;47.346;19.038;2023-05-10T05:42:11;8.27;;;3.58;;
77518;SDS011;66629;47.346;19.038;2023-05-10T05:44:37;4.68;;;3.33;;
77518;SDS011;66629;47.346;19.038;2023-05-10T05:47:03;4.97;;;3.20;;
77518;SDS011;66629;47.346;19.038;2023-05-10T05:49:29;6.22;;;3.58;;
77518;SDS011;66629;47.346;19.038;2023-05-10T05:51:57;6.72;;;3.70;;
77518;SDS011;66629;47.346;19.038;2023-05-10T05:54:24;4.72;;;3.65;;
77518;SDS011;66629;47.346;19.038;2023-05-10T05:56:49;5.22;;;3.67;;
77518;SDS011;66629;47.346;19.038;2023-05-10T05:59:15;4.28;;;3.67;;
77518;SDS011;66629;47.346;19.038;2023-05-10T06:01:40;6.75;;;3.50;;
77518;SDS011;66629;47.346;19.038;2023-05-10T06:04:05;5.32;;;3.60;;
77518;SDS011;66629;47.346;19.038;2023-05-10T06:06:31;4.00;;;3.30;;
77518;SDS011;66629;47.346;19.038;2023-05-10T06:08:57;6.70;;;3.80;;
77518;SDS011;66629;47.346;19.038;2023-05-10T06:11:22;4.60;;;3.38;;
77518;SDS011;66629;47.346;19.038;2023-05-10T06:13:48;5.07;;;3.60;;
77518;SDS011;66629;47.346;19.038;2023-05-10T06:16:14;7.95;;;3.08;;
77518;SDS011;66629;47.346;19.038;2023-05-10T06:18:39;5.32;;;3.72;;
77518;SDS011;66629;47.346;19.038;2023-05-10T06:21:05;4.63;;;3.78;;
77518;SDS011;66629;47.346;19.038;2023-05-10T06:23:30;4.72;;;3.50;;
77518;SDS011;66629;47.346;19.038;2023-05-10T06:25:56;6.00;;;3.00;;
77518;SDS011;66629;47.346;19.038;2023-05-10T06:28:21;5.22;;;3.20;;
77518;SDS011;66629;47.346;19.038;2023-05-10T06:30:47;4.68;;;3.40;;
77518;SDS011;66629;47.346;19.038;2023-05-10T06:33:12;4.38;;;3.95;;
77518;SDS011;66629;47.346;19.038;2023-05-10T06:35:38;4.28;;;3.45;;
77518;SDS011;66629;47.346;19.038;2023-05-10T06:38:03;4.50;;;3.50;;
77518;SDS011;66629;47.346;19.038;2023-05-10T06:40:29;6.13;;;3.50;;
77518;SDS011;66629;47.346;19.038;2023-05-10T06:42:54;5.28;;;3.55;;
77518;SDS011;66629;47.346;19.038;2023-05-10T06:45:20;4.47;;;3.15;;
77518;SDS011;66629;47.346;19.038;2023-05-10T06:47:45;4.13;;;3.28;;
77518;SDS011;66629;47.346;19.038;2023-05-10T06:50:11;4.22;;;2.92;;
77518;SDS011;66629;47.346;19.038;2023-05-10T06:52:36;4.88;;;3.47;;
77518;SDS011;66629;47.346;19.038;2023-05-10T06:55:05;4.60;;;2.90;;
77518;SDS011;66629;47.346;19.038;2023-05-10T06:57:31;3.63;;;2.70;;
77518;SDS011;66629;47.346;19.038;2023-05-10T06:59:57;6.28;;;2.80;;
77518;SDS011;66629;47.346;19.038;2023-05-10T07:02:26;6.75;;;3.00;;
77518;SDS011;66629;47.346;19.038;2023-05-10T07:04:51;4.28;;;3.20;;
77518;SDS011;66629;47.346;19.038;2023-05-10T07:07:17;7.18;;;3.10;;
77518;SDS011;66629;47.346;19.038;2023-05-10T07:09:43;3.95;;;2.70;;
77518;SDS011;66629;47.346;19.038;2023-05-10T07:12:08;5.80;;;3.55;;
77518;SDS011;66629;47.346;19.038;2023-05-10T07:14:34;3.80;;;2.80;;
77518;SDS011;66629;47.346;19.038;2023-05-10T07:16:59;4.32;;;3.10;;
77518;SDS011;66629;47.346;19.038;2023-05-10T07:19:24;5.22;;;3.38;;
77518;SDS011;66629;47.346;19.038;2023-05-10T07:21:50;4.65;;;3.03;;
77518;SDS011;66629;47.346;19.038;2023-05-10T07:24:15;4.65;;;3.10;;
77518;SDS011;66629;47.346;19.038;2023-05-10T07:26:41;5.65;;;3.30;;
77518;SDS011;66629;47.346;19.038;2023-05-10T07:29:06;6.97;;;3.13;;
77518;SDS011;66629;47.346;19.038;2023-05-10T07:31:32;4.45;;;3.08;;
77518;SDS011;66629;47.346;19.038;2023-05-10T07:33:57;6.25;;;2.83;;
77518;SDS011;66629;47.346;19.038;2023-05-10T07:36:23;4.57;;;2.78;;
77518;SDS011;66629;47.346;19.038;2023-05-10T07:38:48;3.88;;;3.03;;
77518;SDS011;66629;47.346;19.038;2023-05-10T07:41:14;3.22;;;2.30;;
77518;SDS011;66629;47.346;19.038;2023-05-10T07:43:39;3.95;;;2.65;;
77518;SDS011;66629;47.346;19.038;2023-05-10T07:46:05;3.95;;;2.00;;
77518;SDS011;66629;47.346;19.038;2023-05-10T07:48:31;6.43;;;2.90;;
77518;SDS011;66629;47.346;19.038;2023-05-10T07:50:56;3.15;;;2.58;;
77518;SDS011;66629;47.346;19.038;2023-05-10T07:53:21;3.55;;;2.70;;
77518;SDS011;66629;47.346;19.038;2023-05-10T07:55:50;2.90;;;2.20;;
77518;SDS011;66629;47.346;19.038;2023-05-10T07:58:19;3.50;;;2.67;;
77518;SDS011;66629;47.346;19.038;2023-05-10T08:00:44;4.75;;;2.90;;
77518;SDS011;66629;47.346;19.038;2023-05-10T08:03:10;3.28;;;2.40;;
77518;SDS011;66629;47.346;19.038;2023-05-10T08:05:35;3.15;;;2.50;;
77518;SDS011;66629;47.346;19.038;2023-05-10T08:08:01;4.28;;;2.05;;
77518;SDS011;66629;47.346;19.038;2023-05-10T08:10:26;5.70;;;3.05;;
77518;SDS011;66629;47.346;19.038;2023-05-10T08:12:52;3.35;;;2.78;;
77518;SDS011;66629;47.346;19.038;2023-05-10T08:15:17;4.47;;;2.80;;
77518;SDS011;66629;47.346;19.038;2023-05-10T08:17:43;3.35;;;2.25;;
77518;SDS011;66629;47.346;19.038;2023-05-10T08:20:08;2.47;;;2.15;;
77518;SDS011;66629;47.346;19.038;2023-05-10T08:22:34;3.65;;;2.50;;
77518;SDS011;66629;47.346;19.038;2023-05-10T08:24:59;3.17;;;2.72;;
77518;SDS011;66629;47.346;19.038;2023-05-10T08:27:25;3.88;;;2.30;;
77518;SDS011;66629;47.346;19.038;2023-05-10T08:29:50;2.90;;;2.50;;
77518;SDS011;66629;47.346;19.038;2023-05-10T08:32:16;2.83;;;2.38;;
77518;SDS011;66629;47.346;19.038;2023-05-10T08:34:42;3.47;;;2.90;;
77518;SDS011;66629;47.346;19.038;2023-05-10T08:37:07;2.92;;;2.50;;
77518;SDS011;66629;47.346;19.038;2023-05-10T08:39:36;3.65;;;2.60;;
77518;SDS011;66629;47.346;19.038;2023-05-10T08:42:02;3.33;;;2.58;;
77518;SDS011;66629;47.346;19.038;2023-05-10T08:44:30;2.75;;;2.17;;
77518;SDS011;66629;47.346;19.038;2023-05-10T08:46:59;2.47;;;2.17;;
77518;SDS011;66629;47.346;19.038;2023-05-10T08:49:26;4.15;;;2.40;;
77518;SDS011;66629;47.346;19.038;2023-05-10T08:51:55;4.80;;;2.40;;
77518;SDS011;66629;47.346;19.038;2023-05-10T08:54:22;3.45;;;2.60;;
77518;SDS011;66629;47.346;19.038;2023-05-10T08:56:48;3.65;;;2.42;;
77518;SDS011;66629;47.346;19.038;2023-05-10T08:59:13;3.10;;;2.40;;
77518;SDS011;66629;47.346;19.038;2023-05-10T09:01:40;2.83;;;2.17;;
77518;SDS011;66629;47.346;19.038;2023-05-10T09:04:07;3.22;;;2.60;;
77518;SDS011;66629;47.346;19.038;2023-05-10T09:06:32;5.07;;;2.72;;
77518;SDS011;66629;47.346;19.038;2023-05-10T09:08:59;3.42;;;2.35;;
77518;SDS011;66629;47.346;19.038;2023-05-10T09:11:24;3.75;;;2.67;;
77518;SDS011;66629;47.346;19.038;2023-05-10T09:13:50;3.67;;;2.40;;
77518;SDS011;66629;47.346;19.038;2023-05-10T09:16:17;2.83;;;2.40;;
77518;SDS011;66629;47.346;19.038;2023-05-10T09:18:43;6.22;;;2.55;;
77518;SDS011;66629;47.346;19.038;2023-05-10T09:21:08;2.15;;;1.95;;
77518;SDS011;66629;47.346;19.038;2023-05-10T09:23:35;4.43;;;2.03;;
77518;SDS011;66629;47.346;19.038;2023-05-10T09:26:06;3.70;;;2.60;;
77518;SDS011;66629;47.346;19.038;2023-05-10T09:28:33;3.30;;;2.30;;
77518;SDS011;66629;47.346;19.038;2023-05-10T09:30:59;2.78;;;2.38;;
77518;SDS011;66629;47.346;19.038;2023-05-10T09:33:24;3.15;;;2.42;;
77518;SDS011;66629;47.346;19.038;2023-05-10T09:35:51;3.75;;;2.30;;
77518;SDS011;66629;47.346;19.038;2023-05-10T09:38:17;2.58;;;1.95;;
77518;SDS011;66629;47.346;19.038;2023-05-10T09:40:42;3.83;;;2.25;;
77518;SDS011;66629;47.346;19.038;2023-05-10T09:43:19;6.63;;;2.38;;
77518;SDS011;66629;47.346;19.038;2023-05-10T09:45:45;3.58;;;2.30;;
77518;SDS011;66629;47.346;19.038;2023-05-10T09:48:14;4.85;;;2.53;;
77518;SDS011;66629;47.346;19.038;2023-05-10T09:50:40;3.95;;;2.30;;
77518;SDS011;66629;47.346;19.038;2023-05-10T09:53:06;4.28;;;2.47;;
77518;SDS011;66629;47.346;19.038;2023-05-10T09:58:04;5.00;;;2.85;;
77518;SDS011;66629;47.346;19.038;2023-05-10T10:00:35;2.15;;;1.80;;
77518;SDS011;66629;47.346;19.038;2023-05-10T10:03:02;3.40;;;2.30;;
77518;SDS011;66629;47.346;19.038;2023-05-10T10:05:38;3.55;;;2.05;;
77518;SDS011;66629;47.346;19.038;2023-05-10T10:08:06;2.55;;;2.20;;
77518;SDS011;66629;47.346;19.038;2023-05-10T10:10:32;2.30;;;1.92;;
77518;SDS011;66629;47.346;19.038;2023-05-10T10:12:58;2.40;;;1.90;;
77518;SDS011;66629;47.346;19.038;2023-05-10T10:15:24;4.93;;;2.05;;
77518;SDS011;66629;47.346;19.038;2023-05-10T10:17:51;4.40;;;2.58;;
77518;SDS011;66629;47.346;19.038;2023-05-10T10:20:18;2.05;;;1.70;;
77518;SDS011;66629;47.346;19.038;2023-05-10T10:22:44;2.55;;;1.80;;
77518;SDS011;66629;47.346;19.038;2023-05-10T10:25:11;2.80;;;1.90;;
77518;SDS011;66629;47.346;19.038;2023-05-10T10:35:53;2.35;;;2.03;;
77518;SDS011;66629;47.346;19.038;2023-05-10T10:38:20;2.75;;;1.70;;
77518;SDS011;66629;47.346;19.038;2023-05-10T10:40:46;2.35;;;1.85;;
77518;SDS011;66629;47.346;19.038;2023-05-10T10:43:25;1.58;;;1.48;;
77518;SDS011;66629;47.346;19.038;2023-05-10T10:48:49;2.90;;;1.50;;
77518;SDS011;66629;47.346;19.038;2023-05-10T10:51:16;2.28;;;1.70;;
77518;SDS011;66629;47.346;19.038;2023-05-10T10:53:42;3.08;;;1.88;;
77518;SDS011;66629;47.346;19.038;2023-05-10T10:56:09;1.42;;;1.33;;
77518;SDS011;66629;47.346;19.038;2023-05-10T10:58:40;3.22;;;1.80;;
77518;SDS011;66629;47.346;19.038;2023-05-10T11:01:24;6.05;;;1.70;;
77518;SDS011;66629;47.346;19.038;2023-05-10T11:06:32;4.70;;;1.60;;
77518;SDS011;66629;47.346;19.038;2023-05-10T11:08:59;1.70;;;1.60;;
77518;SDS011;66629;47.346;19.038;2023-05-10T11:11:31;2.28;;;1.83;;
77518;SDS011;66629;47.346;19.038;2023-05-10T11:13:56;1.77;;;1.67;;
77518;SDS011;66629;47.346;19.038;2023-05-10T11:16:28;4.03;;;1.70;;
77518;SDS011;66629;47.346;19.038;2023-05-10T11:19:13;1.55;;;1.45;;
77518;SDS011;66629;47.346;19.038;2023-05-10T11:21:47;3.38;;;1.63;;
77518;SDS011;66629;47.346;19.038;2023-05-10T11:24:17;1.50;;;1.40;;
77518;SDS011;66629;47.346;19.038;2023-05-10T11:26:49;1.52;;;1.35;;
77518;SDS011;66629;47.346;19.038;2023-05-10T11:29:16;2.03;;;1.55;;
77518;SDS011;66629;47.346;19.038;2023-05-10T11:31:44;3.72;;;1.50;;
77518;SDS011;66629;47.346;19.038;2023-05-10T11:34:11;2.72;;;1.67;;
77518;SDS011;66629;47.346;19.038;2023-05-10T11:36:50;2.40;;;1.50;;
77518;SDS011;66629;47.346;19.038;2023-05-10T11:39:18;2.70;;;1.65;;
77518;SDS011;66629;47.346;19.038;2023-05-10T11:41:46;2.28;;;1.50;;
77518;SDS011;66629;47.346;19.038;2023-05-10T11:44:13;2.35;;;1.67;;
77518;SDS011;66629;47.346;19.038;2023-05-10T11:46:39;5.20;;;1.83;;
77518;SDS011;66629;47.346;19.038;2023-05-10T11:49:07;1.50;;;1.40;;
77518;SDS011;66629;47.346;19.038;2023-05-10T11:51:33;1.65;;;1.48;;
77518;SDS011;66629;47.346;19.038;2023-05-10T11:54:00;3.28;;;1.60;;
77518;SDS011;66629;47.346;19.038;2023-05-10T11:56:29;3.47;;;1.55;;
77518;SDS011;66629;47.346;19.038;2023-05-10T11:58:57;2.72;;;1.40;;
77518;SDS011;66629;47.346;19.038;2023-05-10T12:01:26;4.28;;;2.13;;
77518;SDS011;66629;47.346;19.038;2023-05-10T12:03:53;2.15;;;1.58;;
77518;SDS011;66629;47.346;19.038;2023-05-10T12:06:19;3.80;;;1.60;;
77518;SDS011;66629;47.346;19.038;2023-05-10T12:08:46;1.63;;;1.42;;
77518;SDS011;66629;47.346;19.038;2023-05-10T12:11:13;2.15;;;1.52;;
77518;SDS011;66629;47.346;19.038;2023-05-10T12:13:41;1.90;;;1.42;;
77518;SDS011;66629;47.346;19.038;2023-05-10T12:16:20;2.50;;;1.60;;
77518;SDS011;66629;47.346;19.038;2023-05-10T12:18:50;4.25;;;1.75;;
77518;SDS011;66629;47.346;19.038;2023-05-10T12:21:16;4.50;;;1.40;;
77518;SDS011;66629;47.346;19.038;2023-05-10T12:23:43;1.85;;;1.35;;
77518;SDS011;66629;47.346;19.038;2023-05-10T12:26:11;1.83;;;1.55;;
77518;SDS011;66629;47.346;19.038;2023-05-10T12:28:37;1.83;;;1.50;;
77518;SDS011;66629;47.346;19.038;2023-05-10T12:31:02;2.50;;;1.50;;
77518;SDS011;66629;47.346;19.038;2023-05-10T12:33:35;1.45;;;1.35;;
77518;SDS011;66629;47.346;19.038;2023-05-10T12:36:08;1.50;;;1.40;;
77518;SDS011;66629;47.346;19.038;2023-05-10T12:43:34;2.03;;;1.30;;
77518;SDS011;66629;47.346;19.038;2023-05-10T12:46:07;1.80;;;1.30;;
77518;SDS011;66629;47.346;19.038;2023-05-10T12:48:33;1.88;;;1.40;;
77518;SDS011;66629;47.346;19.038;2023-05-10T12:51:00;1.50;;;1.40;;
77518;SDS011;66629;47.346;19.038;2023-05-10T12:53:26;3.38;;;1.45;;
77518;SDS011;66629;47.346;19.038;2023-05-10T12:55:52;1.40;;;1.30;;
77518;SDS011;66629;47.346;19.038;2023-05-10T12:58:18;3.72;;;1.30;;
77518;SDS011;66629;47.346;19.038;2023-05-10T13:00:43;1.42;;;1.33;;
77518;SDS011;66629;47.346;19.038;2023-05-10T13:03:09;2.33;;;1.40;;
77518;SDS011;66629;47.346;19.038;2023-05-10T13:05:35;2.38;;;1.52;;
77518;SDS011;66629;47.346;19.038;2023-05-10T13:08:01;4.00;;;1.45;;
77518;SDS011;66629;47.346;19.038;2023-05-10T13:10:27;1.45;;;1.35;;
77518;SDS011;66629;47.346;19.038;2023-05-10T13:12:55;2.42;;;1.55;;
77518;SDS011;66629;47.346;19.038;2023-05-10T13:15:20;2.05;;;1.50;;
77518;SDS011;66629;47.346;19.038;2023-05-10T13:17:46;3.10;;;1.50;;
77518;SDS011;66629;47.346;19.038;2023-05-10T13:20:11;3.65;;;1.40;;
77518;SDS011;66629;47.346;19.038;2023-05-10T13:22:36;2.97;;;1.55;;
77518;SDS011;66629;47.346;19.038;2023-05-10T13:25:02;1.98;;;1.27;;
77518;SDS011;66629;47.346;19.038;2023-05-10T13:27:28;3.03;;;1.60;;
77518;SDS011;66629;47.346;19.038;2023-05-10T13:29:53;2.97;;;1.50;;
77518;SDS011;66629;47.346;19.038;2023-05-10T13:32:20;4.85;;;1.60;;
77518;SDS011;66629;47.346;19.038;2023-05-10T13:34:45;1.60;;;1.40;;
77518;SDS011;66629;47.346;19.038;2023-05-10T13:37:11;2.95;;;1.60;;
77518;SDS011;66629;47.346;19.038;2023-05-10T13:39:36;2.72;;;1.60;;
77518;SDS011;66629;47.346;19.038;2023-05-10T13:42:02;1.85;;;1.60;;
77518;SDS011;66629;47.346;19.038;2023-05-10T13:44:28;3.45;;;1.60;;
77518;SDS011;66629;47.346;19.038;2023-05-10T13:46:54;2.30;;;1.70;;
77518;SDS011;66629;47.346;19.038;2023-05-10T13:49:20;2.15;;;1.58;;
77518;SDS011;66629;47.346;19.038;2023-05-10T13:51:47;2.95;;;1.55;;
77518;SDS011;66629;47.346;19.038;2023-05-10T13:54:12;2.85;;;1.60;;
77518;SDS011;66629;47.346;19.038;2023-05-10T13:56:38;3.45;;;1.52;;
77518;SDS011;66629;47.346;19.038;2023-05-10T13:59:03;1.40;;;1.30;;
77518;SDS011;66629;47.346;19.038;2023-05-10T14:01:28;5.43;;;1.65;;
77518;SDS011;66629;47.346;19.038;2023-05-10T14:03:54;1.30;;;1.20;;
77518;SDS011;66629;47.346;19.038;2023-05-10T14:06:19;3.28;;;2.17;;
77518;SDS011;66629;47.346;19.038;2023-05-10T14:08:45;2.38;;;1.50;;
77518;SDS011;66629;47.346;19.038;2023-05-10T14:11:10;1.92;;;1.58;;
77518;SDS011;66629;47.346;19.038;2023-05-10T14:13:36;2.35;;;1.30;;
77518;SDS011;66629;47.346;19.038;2023-05-10T14:16:02;2.65;;;1.70;;
77518;SDS011;66629;47.346;19.038;2023-05-10T14:18:27;1.65;;;1.35;;
77518;SDS011;66629;47.346;19.038;2023-05-10T14:20:53;1.58;;;1.30;;
77518;SDS011;66629;47.346;19.038;2023-05-10T14:23:18;1.48;;;1.20;;
77518;SDS011;66629;47.346;19.038;2023-05-10T14:25:49;1.88;;;1.30;;
77518;SDS011;66629;47.346;19.038;2023-05-10T14:28:16;2.85;;;1.88;;
77518;SDS011;66629;47.346;19.038;2023-05-10T14:30:42;1.30;;;1.20;;
77518;SDS011;66629;47.346;19.038;2023-05-10T14:33:08;1.60;;;1.50;;
77518;SDS011;66629;47.346;19.038;2023-05-10T14:35:33;5.15;;;1.40;;
77518;SDS011;66629;47.346;19.038;2023-05-10T14:37:59;1.77;;;1.40;;
77518;SDS011;66629;47.346;19.038;2023-05-10T14:40:24;2.50;;;2.20;;
77518;SDS011;66629;47.346;19.038;2023-05-10T14:42:50;2.13;;;1.40;;
77518;SDS011;66629;47.346;19.038;2023-05-10T14:45:17;1.60;;;1.40;;
77518;SDS011;66629;47.346;19.038;2023-05-10T14:47:42;1.23;;;1.15;;
77518;SDS011;66629;47.346;19.038;2023-05-10T14:50:08;1.50;;;1.40;;
77518;SDS011;66629;47.346;19.038;2023-05-10T14:52:33;2.42;;;1.10;;
77518;SDS011;66629;47.346;19.038;2023-05-10T14:54:59;2.08;;;1.30;;
77518;SDS011;66629;47.346;19.038;2023-05-10T14:57:26;3.50;;;1.30;;
77518;SDS011;66629;47.346;19.038;2023-05-10T14:59:54;1.88;;;1.33;;
77518;SDS011;66629;47.346;19.038;2023-05-10T15:02:19;1.52;;;1.42;;
77518;SDS011;66629;47.346;19.038;2023-05-10T15:04:45;3.72;;;1.25;;
77518;SDS011;66629;47.346;19.038;2023-05-10T15:07:11;2.05;;;1.15;;
77518;SDS011;66629;47.346;19.038;2023-05-10T15:09:39;1.58;;;1.10;;
77518;SDS011;66629;47.346;19.038;2023-05-10T15:12:04;1.45;;;1.20;;
77518;SDS011;66629;47.346;19.038;2023-05-10T15:14:30;2.03;;;1.30;;
77518;SDS011;66629;47.346;19.038;2023-05-10T15:16:56;1.20;;;1.10;;
77518;SDS011;66629;47.346;19.038;2023-05-10T15:19:21;2.13;;;1.23;;